createdAt,value
2022-09-23T00:00:38.567Z,9.38
2022-09-23T00:03:05.829Z,9.80
2022-09-23T00:05:33.000Z,9.45
2022-09-23T00:08:00.091Z,9.43
2022-09-23T00:10:28.116Z,9.60
2022-09-23T00:12:55.881Z,10.30
2022-09-23T00:15:25.169Z,9.90
2022-09-23T00:17:53.090Z,10.05
2022-09-23T00:20:20.218Z,9.60
2022-09-23T00:22:47.343Z,9.50
2022-09-23T00:25:14.391Z,9.48
2022-09-23T00:27:42.333Z,9.50
2022-09-23T00:30:10.441Z,9.52
2022-09-23T00:32:38.046Z,9.43
2022-09-23T00:35:05.340Z,9.57
2022-09-23T00:37:32.579Z,10.38
2022-09-23T00:40:00.658Z,9.88
2022-09-23T00:42:27.773Z,9.70
2022-09-23T00:44:56.116Z,9.07
2022-09-23T00:47:38.329Z,9.27
2022-09-23T00:50:08.928Z,10.02
2022-09-23T00:52:37.036Z,8.73
2022-09-23T00:55:08.145Z,9.00
2022-09-23T00:57:37.052Z,9.40
2022-09-23T01:00:05.524Z,8.80
2022-09-23T01:02:32.826Z,9.48
2022-09-23T01:05:02.010Z,9.25
2022-09-23T01:07:30.070Z,9.43
2022-09-23T01:09:58.310Z,8.97
2022-09-23T01:12:42.334Z,8.77
2022-09-23T01:15:18.831Z,9.40
2022-09-23T01:18:04.488Z,9.40
2022-09-23T01:20:46.771Z,9.13
2022-09-23T01:23:31.861Z,9.60
2022-09-23T01:26:14.141Z,9.93
2022-09-23T01:28:43.952Z,10.20
2022-09-23T01:31:17.389Z,9.52
2022-09-23T01:33:56.473Z,9.55
2022-09-23T01:36:26.107Z,9.47
2022-09-23T01:39:02.874Z,9.75
2022-09-23T01:41:45.285Z,9.50
2022-09-23T01:44:14.537Z,9.55
2022-09-23T01:46:50.542Z,9.02
2022-09-23T01:49:28.331Z,8.97
2022-09-23T01:52:05.326Z,9.05
2022-09-23T01:54:47.345Z,9.88
2022-09-23T01:57:25.400Z,9.30
2022-09-23T02:00:15.717Z,9.80
2022-09-23T02:02:52.186Z,9.90
2022-09-23T02:05:22.144Z,9.55
2022-09-23T02:07:49.654Z,9.75
2022-09-23T02:10:22.946Z,10.00
2022-09-23T02:12:50.978Z,9.88
2022-09-23T02:15:20.286Z,9.60
2022-09-23T02:17:52.023Z,10.10
2022-09-23T02:20:22.688Z,9.60
2022-09-23T02:22:49.763Z,10.80
2022-09-23T02:25:17.347Z,10.05
2022-09-23T02:27:52.730Z,9.90
2022-09-23T02:30:27.022Z,9.90
2022-09-23T02:32:58.631Z,10.30
2022-09-23T02:35:25.731Z,9.90
2022-09-23T02:38:06.674Z,10.25
2022-09-23T02:40:38.664Z,9.60
2022-09-23T02:43:07.555Z,9.70
2022-09-23T02:45:35.415Z,9.77
2022-09-23T02:48:05.900Z,9.40
2022-09-23T02:50:33.762Z,9.73
2022-09-23T02:53:01.414Z,10.43
2022-09-23T02:55:32.302Z,9.80
2022-09-23T02:58:02.793Z,10.35
2022-09-23T03:00:37.840Z,9.93
2022-09-23T03:03:20.204Z,9.98
2022-09-23T03:05:54.771Z,10.23
2022-09-23T03:08:21.833Z,9.75
2022-09-23T03:10:52.962Z,10.15
2022-09-23T03:13:40.289Z,10.77
2022-09-23T03:16:39.864Z,10.60
2022-09-23T03:19:18.887Z,9.90
2022-09-23T03:21:57.370Z,10.45
2022-09-23T03:24:25.447Z,10.55
2022-09-23T03:26:53.855Z,11.02
2022-09-23T03:29:21.848Z,10.15
2022-09-23T03:31:49.106Z,10.57
2022-09-23T03:34:19.480Z,11.00
2022-09-23T03:37:01.437Z,10.77
2022-09-23T03:39:37.682Z,10.55
2022-09-23T03:42:08.315Z,11.15
2022-09-23T03:44:39.559Z,11.20
2022-09-23T03:47:06.964Z,10.68
2022-09-23T03:49:36.132Z,10.93
2022-09-23T03:52:03.462Z,10.43
2022-09-23T03:54:30.806Z,11.52
2022-09-23T03:56:58.324Z,10.53
2022-09-23T03:59:25.685Z,11.07
2022-09-23T04:01:54.096Z,10.95
2022-09-23T04:04:21.201Z,11.57
2022-09-23T04:06:48.258Z,11.95
2022-09-23T04:09:15.510Z,11.23
2022-09-23T04:11:42.592Z,11.18
2022-09-23T04:14:10.342Z,11.70
2022-09-23T04:16:37.499Z,11.23
2022-09-23T04:19:05.177Z,11.35
2022-09-23T04:21:32.496Z,10.93
2022-09-23T04:23:59.604Z,11.23
2022-09-23T04:26:26.744Z,11.35
2022-09-23T04:28:55.148Z,11.27
2022-09-23T04:31:25.026Z,11.88
2022-09-23T04:33:54.990Z,11.23
2022-09-23T04:36:22.553Z,11.73
2022-09-23T04:38:50.176Z,11.50
2022-09-23T04:41:17.501Z,12.02
2022-09-23T04:43:44.984Z,11.93
2022-09-23T04:46:13.144Z,11.17
2022-09-23T04:48:41.566Z,11.43
2022-09-23T04:51:12.936Z,11.88
2022-09-23T04:53:41.135Z,11.57
2022-09-23T04:56:10.052Z,11.98
2022-09-23T04:58:37.169Z,11.40
2022-09-23T05:01:16.432Z,11.00
2022-09-23T05:03:44.085Z,12.13
2022-09-23T05:06:13.681Z,11.63
2022-09-23T05:08:41.589Z,11.80
2022-09-23T05:11:08.963Z,11.27
2022-09-23T05:13:36.087Z,11.43
2022-09-23T05:16:04.553Z,11.73
2022-09-23T05:18:32.401Z,10.75
2022-09-23T05:20:59.477Z,11.15
2022-09-23T05:23:27.380Z,10.60
2022-09-23T05:26:02.048Z,11.65
2022-09-23T05:28:31.196Z,10.63
2022-09-23T05:31:19.571Z,11.20
2022-09-23T05:33:57.566Z,10.82
2022-09-23T05:36:24.900Z,11.20
2022-09-23T05:38:52.535Z,11.48
2022-09-23T05:41:25.183Z,11.93
2022-09-23T05:43:53.159Z,10.95
2022-09-23T05:46:24.304Z,11.40
2022-09-23T05:48:51.728Z,10.93
2022-09-23T05:51:20.049Z,11.13
2022-09-23T05:53:47.616Z,11.57
2022-09-23T05:56:15.383Z,10.95
2022-09-23T05:58:42.549Z,11.25
2022-09-23T06:01:10.803Z,11.37
2022-09-23T06:03:37.963Z,11.52
2022-09-23T06:06:05.110Z,11.70
2022-09-23T06:08:34.207Z,11.48
2022-09-23T06:11:07.047Z,11.80
2022-09-23T06:13:35.466Z,12.13
2022-09-23T06:16:03.212Z,12.10
2022-09-23T06:18:30.287Z,11.98
2022-09-23T06:21:00.610Z,11.55
2022-09-23T06:23:27.739Z,11.68
2022-09-23T06:25:54.893Z,11.47
2022-09-23T06:28:22.648Z,12.00
2022-09-23T06:30:50.538Z,11.73
2022-09-23T06:33:25.912Z,11.27
2022-09-23T06:36:00.212Z,11.43
2022-09-23T06:38:28.181Z,10.80
2022-09-23T06:40:56.248Z,11.85
2022-09-23T06:43:24.103Z,12.23
2022-09-23T06:45:58.424Z,11.07
2022-09-23T06:48:26.187Z,11.63
2022-09-23T06:50:53.774Z,11.13
2022-09-23T06:53:23.637Z,11.27
2022-09-23T06:55:58.903Z,11.23
2022-09-23T06:58:26.736Z,11.15
2022-09-23T07:00:54.201Z,11.20
2022-09-23T07:03:22.151Z,11.60
2022-09-23T07:05:49.223Z,11.90
2022-09-23T07:08:16.347Z,12.35
2022-09-23T07:10:43.399Z,11.20
2022-09-23T07:13:15.511Z,11.65
2022-09-23T07:15:43.374Z,10.70
2022-09-23T07:18:13.621Z,11.30
2022-09-23T07:20:40.672Z,11.30
2022-09-23T07:23:07.709Z,11.10
2022-09-23T07:25:34.763Z,12.23
2022-09-23T07:28:02.006Z,11.13
2022-09-23T07:30:29.084Z,11.23
2022-09-23T07:32:56.192Z,11.95
2022-09-23T07:35:23.347Z,11.05
2022-09-23T07:37:50.951Z,11.70
2022-09-23T07:40:18.093Z,11.50
2022-09-23T07:42:45.251Z,11.35
2022-09-23T07:45:12.915Z,11.77
2022-09-23T07:47:39.990Z,10.88
2022-09-23T07:50:07.881Z,11.20
2022-09-23T07:52:38.095Z,11.13
2022-09-23T07:55:06.174Z,11.35
2022-09-23T07:57:33.359Z,11.95
2022-09-23T08:00:01.085Z,11.57
2022-09-23T08:02:28.354Z,11.45
2022-09-23T08:04:55.523Z,10.87
2022-09-23T08:07:22.570Z,10.98
2022-09-23T08:09:49.623Z,10.52
2022-09-23T08:12:18.174Z,10.70
2022-09-23T08:14:45.528Z,9.95
2022-09-23T08:17:13.791Z,9.83
2022-09-23T08:19:40.882Z,9.85
2022-09-23T08:22:07.929Z,10.02
2022-09-23T08:24:34.976Z,9.25
2022-09-23T08:27:02.030Z,10.40
2022-09-23T08:29:29.135Z,10.30
2022-09-23T08:31:56.295Z,10.80
2022-09-23T08:34:23.878Z,9.40
2022-09-23T08:36:52.290Z,9.88
2022-09-23T08:39:20.253Z,9.52
2022-09-23T08:41:59.029Z,9.37
2022-09-23T08:44:47.724Z,9.50
2022-09-23T08:47:21.903Z,9.48
2022-09-23T08:49:54.099Z,9.13
2022-09-23T08:52:24.381Z,9.25
2022-09-23T08:54:55.262Z,9.17
2022-09-23T08:57:57.391Z,9.07
2022-09-23T09:00:42.852Z,8.88
2022-09-23T09:03:21.779Z,8.20
2022-09-23T09:05:54.136Z,8.75
2022-09-23T09:08:27.268Z,8.20
2022-09-23T09:10:55.995Z,8.85
2022-09-23T09:13:31.785Z,9.32
2022-09-23T09:16:05.895Z,8.98
2022-09-23T09:18:34.439Z,8.35
2022-09-23T09:21:12.003Z,7.83
2022-09-23T09:23:48.416Z,8.70
2022-09-23T09:26:22.446Z,8.88
2022-09-23T09:28:51.843Z,8.85
2022-09-23T09:31:30.033Z,8.80
2022-09-23T09:34:03.010Z,9.10
2022-09-23T09:36:33.166Z,8.70
2022-09-23T09:39:00.318Z,9.88
2022-09-23T09:41:31.426Z,8.88
2022-09-23T09:44:00.679Z,9.02
2022-09-23T09:46:32.951Z,8.60
2022-09-23T09:49:03.262Z,8.70
2022-09-23T09:51:30.350Z,9.05
2022-09-23T09:54:17.033Z,8.18
2022-09-23T09:56:45.189Z,7.68
2022-09-23T09:59:16.727Z,7.80
2022-09-23T10:01:44.067Z,7.68
2022-09-23T10:04:28.240Z,8.10
2022-09-23T10:07:21.704Z,7.53
2022-09-23T10:09:50.200Z,7.63
2022-09-23T10:12:18.564Z,7.90
2022-09-23T10:14:46.835Z,7.90
2022-09-23T10:17:33.964Z,7.60
2022-09-23T10:20:03.423Z,7.82
2022-09-23T10:22:34.771Z,7.65
2022-09-23T10:25:03.632Z,7.60
2022-09-23T10:27:33.269Z,7.60
2022-09-23T10:30:01.787Z,8.43
2022-09-23T10:32:31.120Z,8.10
2022-09-23T10:34:59.796Z,8.57
2022-09-23T10:37:35.139Z,8.00
2022-09-23T10:40:30.176Z,7.80
2022-09-23T10:43:36.554Z,6.80
2022-09-23T10:46:23.794Z,7.00
2022-09-23T10:49:17.466Z,6.47
2022-09-23T10:51:44.540Z,5.93
2022-09-23T10:54:18.393Z,6.10
2022-09-23T10:56:51.405Z,6.85
2022-09-23T10:59:37.840Z,5.53
2022-09-23T11:02:07.632Z,5.85
2022-09-23T11:04:34.679Z,5.77
2022-09-23T11:07:14.000Z,5.68
2022-09-23T11:09:51.876Z,5.25
2022-09-23T11:12:25.130Z,5.00
2022-09-23T11:15:04.354Z,5.35
2022-09-23T11:17:50.050Z,5.00
2022-09-23T11:20:23.269Z,5.07
2022-09-23T11:23:01.036Z,5.45
2022-09-23T11:25:47.172Z,4.90
2022-09-23T11:28:17.753Z,5.65
2022-09-23T11:30:44.927Z,5.10
2022-09-23T11:33:32.373Z,5.10
2022-09-23T11:36:08.198Z,5.25
2022-09-23T11:38:46.056Z,5.30
2022-09-23T11:41:17.513Z,5.10
2022-09-23T11:43:47.252Z,5.10
2022-09-23T11:46:14.422Z,5.20
2022-09-23T11:48:48.762Z,5.18
2022-09-23T11:51:18.767Z,5.20
2022-09-23T11:54:03.723Z,5.68
2022-09-23T11:56:46.714Z,6.20
2022-09-23T11:59:15.872Z,4.97
2022-09-23T12:01:48.288Z,5.03
2022-09-23T12:04:21.066Z,4.50
2022-09-23T12:07:11.560Z,4.70
2022-09-23T12:09:59.836Z,4.70
2022-09-23T12:12:41.119Z,4.40
2022-09-23T12:15:23.720Z,4.80
2022-09-23T12:18:11.162Z,4.20
2022-09-23T12:21:33.078Z,4.35
2022-09-23T12:24:22.034Z,4.40
2022-09-23T12:26:52.052Z,4.35
2022-09-23T12:29:19.225Z,4.55
2022-09-23T12:31:46.873Z,4.57
2022-09-23T12:34:22.478Z,4.13
2022-09-23T12:36:49.612Z,3.97
2022-09-23T12:39:27.853Z,3.75
2022-09-23T12:41:58.703Z,4.18
2022-09-23T12:44:41.166Z,4.57
2022-09-23T12:47:27.980Z,4.03
2022-09-23T12:49:56.480Z,4.00
2022-09-23T12:52:25.698Z,4.32
2022-09-23T12:54:56.244Z,4.20
2022-09-23T12:57:52.652Z,4.00
2022-09-23T13:00:29.860Z,4.00
2022-09-23T13:03:19.536Z,3.93
2022-09-23T13:06:12.324Z,4.30
2022-09-23T13:08:41.070Z,4.82
2022-09-23T13:11:15.674Z,4.50
2022-09-23T13:13:44.135Z,4.30
2022-09-23T13:16:11.286Z,4.53
2022-09-23T13:18:50.352Z,4.50
2022-09-23T13:21:19.212Z,4.05
2022-09-23T13:24:04.924Z,4.28
2022-09-23T13:26:32.920Z,4.70
2022-09-23T13:29:00.072Z,4.47
2022-09-23T13:31:27.322Z,4.85
2022-09-23T13:34:00.357Z,4.95
2022-09-23T13:36:27.432Z,4.82
2022-09-23T13:38:54.606Z,4.78
2022-09-23T13:41:25.083Z,4.97
2022-09-23T13:43:58.534Z,5.20
2022-09-23T13:46:27.054Z,5.15
2022-09-23T13:48:54.816Z,4.93
2022-09-23T13:51:33.261Z,4.80
2022-09-23T13:54:01.445Z,5.43
2022-09-23T13:56:30.177Z,5.70
2022-09-23T13:59:21.146Z,7.35
2022-09-23T14:01:48.286Z,6.38
2022-09-23T14:04:25.387Z,7.15
2022-09-23T14:06:53.347Z,7.20
2022-09-23T14:09:24.375Z,6.63
2022-09-23T14:11:52.151Z,7.28
2022-09-23T14:14:19.410Z,7.35
2022-09-23T14:16:49.577Z,7.40
2022-09-23T14:19:21.489Z,7.23
2022-09-23T14:21:49.926Z,7.38
2022-09-23T14:24:21.530Z,7.03
2022-09-23T14:27:00.653Z,7.75
2022-09-23T14:29:30.067Z,7.00
2022-09-23T14:32:00.171Z,7.43
2022-09-23T14:34:39.447Z,7.20
2022-09-23T14:37:51.096Z,7.85
2022-09-23T14:40:29.482Z,8.63
2022-09-23T14:43:02.744Z,7.78
2022-09-23T14:45:37.176Z,6.90
2022-09-23T14:48:14.132Z,7.85
2022-09-23T14:50:50.384Z,7.55
2022-09-23T14:53:23.308Z,7.00
2022-09-23T14:55:57.172Z,7.25
2022-09-23T14:58:28.471Z,6.73
2022-09-23T15:00:57.000Z,6.63
2022-09-23T15:03:24.398Z,7.03
2022-09-23T15:05:57.863Z,6.63
2022-09-23T15:08:27.115Z,7.40
2022-09-23T15:10:54.652Z,8.40
2022-09-23T15:13:21.680Z,7.53
2022-09-23T15:15:48.751Z,6.85
2022-09-23T15:18:33.153Z,6.65
2022-09-23T15:21:13.732Z,6.07
2022-09-23T15:23:49.654Z,5.90
2022-09-23T15:26:20.860Z,6.25
2022-09-23T15:28:48.508Z,5.95
2022-09-23T15:31:16.727Z,6.75
2022-09-23T15:33:50.888Z,5.82
2022-09-23T15:36:22.156Z,5.60
2022-09-23T15:38:49.629Z,6.15
2022-09-23T15:41:20.103Z,6.20
2022-09-23T15:44:08.013Z,5.82
2022-09-23T15:46:47.016Z,6.10
2022-09-23T15:49:23.485Z,5.43
2022-09-23T15:51:52.095Z,6.20
2022-09-23T15:54:19.683Z,6.40
2022-09-23T15:56:47.798Z,5.85
2022-09-23T15:59:14.888Z,5.93
2022-09-23T16:01:42.979Z,6.63
2022-09-23T16:04:10.861Z,6.70
2022-09-23T16:06:37.933Z,6.97
2022-09-23T16:09:05.076Z,7.28
2022-09-23T16:11:32.718Z,7.60
2022-09-23T16:14:00.630Z,7.87
2022-09-23T16:16:28.173Z,8.27
2022-09-23T16:18:55.488Z,8.73
2022-09-23T16:21:24.648Z,9.05
2022-09-23T16:23:53.241Z,9.20
2022-09-23T16:26:24.135Z,8.70
2022-09-23T16:28:52.223Z,8.73
2022-09-23T16:31:19.593Z,9.25
2022-09-23T16:33:47.172Z,9.32
2022-09-23T16:36:25.801Z,9.82
2022-09-23T16:38:54.953Z,9.73
2022-09-23T16:41:23.415Z,9.93
2022-09-23T16:43:53.787Z,10.68
2022-09-23T16:46:22.520Z,10.52
2022-09-23T16:48:52.665Z,10.20
2022-09-23T16:51:21.252Z,10.70
2022-09-23T16:53:51.784Z,11.10
2022-09-23T16:56:24.224Z,11.25
2022-09-23T16:58:54.957Z,11.48
2022-09-23T17:01:42.043Z,11.52
2022-09-23T17:04:10.484Z,11.60
2022-09-23T17:06:42.737Z,13.23
2022-09-23T17:09:10.018Z,12.90
2022-09-23T17:11:38.071Z,12.27
2022-09-23T17:14:05.572Z,12.57
2022-09-23T17:16:33.734Z,12.33
2022-09-23T17:19:06.494Z,12.10
2022-09-23T17:21:33.934Z,12.63
2022-09-23T17:24:01.837Z,12.93
2022-09-23T17:26:29.383Z,12.70
2022-09-23T17:28:57.448Z,13.10
2022-09-23T17:31:25.521Z,12.75
2022-09-23T17:33:53.215Z,13.55
2022-09-23T17:36:20.943Z,12.10
2022-09-23T17:38:48.639Z,12.65
2022-09-23T17:41:17.140Z,12.83
2022-09-23T17:43:45.287Z,13.02
2022-09-23T17:46:17.918Z,13.98
2022-09-23T17:48:45.400Z,12.90
2022-09-23T17:51:17.312Z,13.18
2022-09-23T17:53:45.285Z,13.27
2022-09-23T17:56:15.632Z,13.82
2022-09-23T17:58:43.478Z,13.68
2022-09-23T18:01:12.032Z,13.63
2022-09-23T18:03:42.187Z,14.57
2022-09-23T18:06:29.755Z,14.38
2022-09-23T18:08:57.223Z,14.70
2022-09-23T18:11:25.534Z,14.48
2022-09-23T18:13:53.970Z,14.80
2022-09-23T18:16:22.765Z,14.45
2022-09-23T18:18:53.562Z,13.95
2022-09-23T18:21:21.204Z,15.20
2022-09-23T18:23:48.649Z,15.50
2022-09-23T18:26:16.336Z,16.42
2022-09-23T18:28:43.556Z,15.00
2022-09-23T18:31:11.130Z,15.18
2022-09-23T18:33:38.807Z,15.43
2022-09-23T18:36:06.463Z,15.30
2022-09-23T18:38:33.555Z,15.43
2022-09-23T18:41:01.053Z,14.88
2022-09-23T18:43:37.224Z,15.43
2022-09-23T18:46:08.884Z,15.37
2022-09-23T18:48:54.854Z,15.38
2022-09-23T18:51:25.428Z,15.38
2022-09-23T18:53:57.518Z,14.77
2022-09-23T18:56:29.600Z,16.60
2022-09-23T18:58:56.901Z,15.23
2022-09-23T19:01:24.894Z,15.55
2022-09-23T19:03:59.112Z,15.43
2022-09-23T19:06:26.428Z,15.23
2022-09-23T19:08:54.307Z,15.27
2022-09-23T19:11:21.790Z,15.57
2022-09-23T19:13:54.071Z,15.50
2022-09-23T19:16:22.453Z,15.07
2022-09-23T19:18:50.041Z,15.32
2022-09-23T19:21:18.399Z,15.00
2022-09-23T19:23:49.021Z,14.83
2022-09-23T19:26:17.396Z,14.35
2022-09-23T19:28:48.523Z,14.93
2022-09-23T19:31:17.089Z,14.85
2022-09-23T19:33:49.821Z,15.80
2022-09-23T19:36:17.421Z,15.27
2022-09-23T19:38:44.501Z,15.65
2022-09-23T19:41:11.591Z,15.75
2022-09-23T19:43:38.651Z,16.17
2022-09-23T19:46:06.845Z,16.65
2022-09-23T19:48:34.175Z,16.17
2022-09-23T19:51:02.531Z,16.50
2022-09-23T19:53:29.622Z,15.23
2022-09-23T19:55:57.052Z,16.33
2022-09-23T19:58:25.531Z,17.45
2022-09-23T20:00:52.703Z,16.50
2022-09-23T20:03:19.856Z,16.90
2022-09-23T20:05:54.869Z,17.40
2022-09-23T20:08:22.423Z,16.27
2022-09-23T20:10:49.784Z,16.92
2022-09-23T20:13:20.186Z,16.07
2022-09-23T20:15:48.192Z,16.85
2022-09-23T20:18:15.487Z,16.95
2022-09-23T20:20:42.664Z,16.98
2022-09-23T20:23:09.708Z,17.00
2022-09-23T20:25:55.643Z,16.43
2022-09-23T20:28:22.775Z,17.42
2022-09-23T20:30:50.898Z,16.83
2022-09-23T20:33:17.934Z,16.83
2022-09-23T20:35:51.116Z,17.02
2022-09-23T20:38:18.171Z,16.77
2022-09-23T20:40:45.338Z,16.55
2022-09-23T20:43:15.978Z,16.48
2022-09-23T20:45:49.929Z,17.08
2022-09-23T20:48:16.967Z,17.23
2022-09-23T20:50:44.975Z,17.93
2022-09-23T20:53:12.055Z,17.98
2022-09-23T20:55:39.203Z,18.10
2022-09-23T20:58:06.285Z,17.30
2022-09-23T21:00:33.691Z,18.67
2022-09-23T21:03:02.547Z,17.90
2022-09-23T21:05:30.114Z,18.20
2022-09-23T21:08:02.134Z,17.85
2022-09-23T21:10:30.087Z,17.95
2022-09-23T21:12:57.163Z,18.70
2022-09-23T21:15:24.200Z,18.13
2022-09-23T21:17:51.255Z,18.10
2022-09-23T21:20:18.416Z,18.80
2022-09-23T21:22:45.462Z,17.60
2022-09-23T21:25:29.002Z,18.50
2022-09-23T21:27:57.551Z,18.10
2022-09-23T21:30:24.631Z,17.65
2022-09-23T21:32:51.667Z,17.30
2022-09-23T21:35:21.557Z,16.67
2022-09-23T21:37:51.660Z,15.93
2022-09-23T21:40:37.610Z,16.97
2022-09-23T21:43:04.710Z,15.88
2022-09-23T21:45:32.023Z,16.55
2022-09-23T21:47:59.079Z,16.58
2022-09-23T21:50:29.781Z,16.63
2022-09-23T21:52:58.209Z,16.30
2022-09-23T21:55:25.442Z,17.17
2022-09-23T21:57:52.610Z,15.93
2022-09-23T22:00:19.685Z,16.40
2022-09-23T22:02:46.811Z,17.33
2022-09-23T22:05:13.912Z,16.70
2022-09-23T22:07:40.950Z,17.42
2022-09-23T22:10:08.157Z,16.80
2022-09-23T22:12:35.307Z,16.40
2022-09-23T22:15:02.382Z,17.08
2022-09-23T22:17:30.771Z,16.97
2022-09-23T22:19:58.409Z,18.38
2022-09-23T22:22:25.541Z,17.63
2022-09-23T22:24:52.586Z,18.15
2022-09-23T22:27:20.451Z,17.58
2022-09-23T22:30:06.203Z,17.43
2022-09-23T22:32:43.286Z,17.60
2022-09-23T22:35:12.204Z,18.50
2022-09-23T22:37:39.266Z,17.73
2022-09-23T22:40:08.045Z,18.20
2022-09-23T22:42:36.423Z,18.03
2022-09-23T22:45:05.654Z,18.70
2022-09-23T22:47:39.758Z,18.95
2022-09-23T22:50:07.905Z,19.27
2022-09-23T22:52:35.271Z,19.50
2022-09-23T22:55:03.579Z,18.27
2022-09-23T22:57:31.239Z,19.63
2022-09-23T22:59:58.315Z,19.05
2022-09-23T23:02:25.387Z,19.73
2022-09-23T23:04:52.701Z,19.10
2022-09-23T23:07:21.549Z,18.80
2022-09-23T23:09:50.166Z,19.40
2022-09-23T23:12:19.895Z,19.33
2022-09-23T23:14:48.349Z,20.08
2022-09-23T23:17:15.425Z,18.77
2022-09-23T23:19:42.475Z,17.40
2022-09-23T23:22:09.571Z,18.77
2022-09-23T23:24:36.638Z,18.35
2022-09-23T23:27:03.706Z,18.35
2022-09-23T23:29:30.841Z,18.77
2022-09-23T23:31:57.931Z,17.80
2022-09-23T23:34:25.291Z,17.58
2022-09-23T23:36:56.786Z,16.80
2022-09-23T23:39:24.779Z,16.75
2022-09-23T23:41:55.737Z,16.38
2022-09-23T23:44:23.724Z,16.33
2022-09-23T23:46:51.176Z,15.07
2022-09-23T23:49:18.308Z,15.23
2022-09-23T23:51:45.407Z,15.10
2022-09-23T23:54:12.863Z,14.50
2022-09-23T23:56:39.931Z,14.13
2022-09-23T23:59:07.203Z,14.23
